Time;durP1;ratioP1;P1;durP2;ratioP2;P2;SDS_P1;SDS_P2;PMS_P1;PMS_P2;Temp;Humidity;BMP_temperature;BMP_pressure;BME280_temperature;BME280_humidity;BME280_pressure;Samples;Min_cycle;Max_cycle;Signal;HPM_P1;HPM_P2
2021/10/06 00:01:13;;;;;;;4.00;0.80;;;13.80;74.20;;;;;;5058386;28;20029;-76
2021/10/06 00:03:39;;;;;;;4.57;0.90;;;13.70;74.10;;;;;;5074041;28;20111;-77
2021/10/06 00:06:05;;;;;;;5.85;1.10;;;13.80;74.50;;;;;;5074099;28;20047;-76
2021/10/06 00:08:30;;;;;;;2.92;0.77;;;13.70;74.80;;;;;;5085323;28;20024;-76
2021/10/06 00:10:56;;;;;;;5.60;0.88;;;13.70;74.60;;;;;;5082593;28;20028;-77
2021/10/06 00:13:22;;;;;;;5.15;0.80;;;13.70;74.60;;;;;;5082784;28;20055;-76
2021/10/06 00:15:48;;;;;;;5.13;0.88;;;13.70;74.90;;;;;;5073865;28;20028;-76
2021/10/06 00:18:15;;;;;;;2.13;0.68;;;13.70;75.10;;;;;;5074108;28;20513;-76
2021/10/06 00:20:41;;;;;;;5.05;0.70;;;13.70;74.70;;;;;;5073910;28;20028;-76
2021/10/06 00:23:07;;;;;;;7.47;0.80;;;13.70;75.10;;;;;;5073790;28;20025;-76
2021/10/06 00:25:33;;;;;;;2.75;0.50;;;13.70;74.80;;;;;;5073556;28;20029;-76
2021/10/06 00:27:59;;;;;;;3.53;0.60;;;13.70;75.20;;;;;;5073776;28;20507;-76
2021/10/06 00:30:24;;;;;;;4.93;0.90;;;13.70;75.10;;;;;;5073829;28;20439;-76
2021/10/06 00:32:50;;;;;;;4.53;0.95;;;13.70;75.10;;;;;;5074135;28;20642;-75
2021/10/06 00:35:16;;;;;;;5.05;1.00;;;13.60;75.30;;;;;;5072508;28;20028;-75
2021/10/06 00:37:42;;;;;;;5.35;0.90;;;13.60;75.50;;;;;;5058422;28;20039;-76
2021/10/06 00:40:08;;;;;;;8.27;0.80;;;13.70;75.50;;;;;;5056932;28;20024;-74
2021/10/06 00:42:37;;;;;;;4.82;0.77;;;13.70;75.30;;;;;;5073450;28;20507;-75
2021/10/06 00:45:03;;;;;;;7.30;1.05;;;13.70;75.20;;;;;;5073694;28;20098;-74
2021/10/06 00:47:29;;;;;;;7.88;0.73;;;13.70;75.40;;;;;;5072935;28;20397;-74
2021/10/06 00:49:55;;;;;;;8.60;0.80;;;13.60;75.50;;;;;;5072926;28;20081;-75
2021/10/06 00:52:20;;;;;;;3.55;0.90;;;13.60;75.90;;;;;;5072963;28;20025;-76
2021/10/06 00:54:46;;;;;;;4.55;0.88;;;13.60;75.60;;;;;;5073313;28;20111;-76
2021/10/06 00:57:12;;;;;;;7.72;0.68;;;13.60;75.60;;;;;;5057557;28;20029;-76
2021/10/06 00:59:38;;;;;;;4.07;0.75;;;13.60;75.80;;;;;;5073612;28;20099;-75
2021/10/06 01:02:04;;;;;;;5.25;1.00;;;13.60;76.00;;;;;;5072942;28;20024;-75
2021/10/06 01:04:31;;;;;;;6.57;0.90;;;13.60;75.90;;;;;;5072606;28;20631;-75
2021/10/06 01:06:56;;;;;;;4.07;0.70;;;13.60;75.80;;;;;;5072829;28;20166;-76
2021/10/06 01:09:27;;;;;;;3.53;1.15;;;13.60;76.20;;;;;;5072966;28;20115;-74
2021/10/06 01:11:53;;;;;;;2.58;0.68;;;13.60;76.00;;;;;;5085842;28;20020;-74
2021/10/06 01:14:20;;;;;;;3.15;0.60;;;13.50;75.90;;;;;;5073785;28;20507;-75
2021/10/06 01:16:46;;;;;;;6.68;0.95;;;13.50;76.10;;;;;;5072681;28;20029;-74
2021/10/06 01:19:23;;;;;;;5.05;0.95;;;13.60;76.20;;;;;;5072371;28;20032;-74
2021/10/06 01:21:50;;;;;;;4.57;0.70;;;13.50;76.00;;;;;;5072689;28;20105;-75
2021/10/06 01:24:17;;;;;;;3.80;0.98;;;13.50;76.60;;;;;;5072665;28;20392;-75
2021/10/06 01:26:42;;;;;;;4.15;0.68;;;13.40;76.00;;;;;;5070949;28;20040;-76
2021/10/06 01:29:08;;;;;;;6.43;0.93;;;13.40;76.50;;;;;;5057723;28;20035;-76
2021/10/06 01:31:34;;;;;;;7.50;1.15;;;13.40;76.80;;;;;;5072399;28;20093;-75
2021/10/06 01:33:59;;;;;;;5.18;1.00;;;13.40;76.70;;;;;;5072282;28;20021;-75
2021/10/06 01:36:25;;;;;;;4.15;0.70;;;13.40;76.50;;;;;;5072144;28;20511;-74
2021/10/06 01:38:51;;;;;;;4.50;1.05;;;13.40;76.90;;;;;;5072396;28;20054;-75
2021/10/06 01:41:17;;;;;;;6.57;1.17;;;13.40;76.80;;;;;;5072401;28;20059;-75
2021/10/06 01:43:42;;;;;;;7.43;0.80;;;13.40;76.90;;;;;;5072224;28;20029;-74
2021/10/06 01:46:08;;;;;;;5.90;0.80;;;13.40;76.80;;;;;;5071881;28;20036;-76
2021/10/06 01:48:34;;;;;;;4.68;0.77;;;13.30;76.20;;;;;;5070722;28;20035;-74
2021/10/06 01:50:59;;;;;;;6.53;1.13;;;13.30;76.80;;;;;;5068975;28;20021;-75
2021/10/06 01:53:38;;;;;;;5.50;1.05;;;13.20;77.00;;;;;;5072099;28;20032;-75
2021/10/06 01:56:04;;;;;;;6.40;0.90;;;13.20;76.90;;;;;;5071913;28;20032;-75
2021/10/06 01:58:29;;;;;;;4.80;0.90;;;13.30;77.30;;;;;;5071886;28;20115;-75
2021/10/06 02:00:55;;;;;;;5.10;0.82;;;13.30;77.30;;;;;;5071860;28;20052;-75
2021/10/06 02:03:21;;;;;;;5.72;1.00;;;13.30;78.20;;;;;;5054420;28;20793;-75
2021/10/06 02:05:47;;;;;;;4.03;0.80;;;13.30;77.40;;;;;;5072258;28;20422;-75
2021/10/06 02:08:16;;;;;;;4.32;0.90;;;13.30;77.20;;;;;;5071571;28;20032;-75
2021/10/06 02:10:44;;;;;;;5.28;0.70;;;13.30;77.00;;;;;;5071552;28;20040;-75
2021/10/06 02:13:11;;;;;;;4.93;0.70;;;13.30;77.20;;;;;;5055539;28;20024;-75
2021/10/06 02:15:37;;;;;;;4.68;1.00;;;13.20;77.20;;;;;;5071946;28;20020;-75
2021/10/06 02:18:03;;;;;;;7.88;0.80;;;13.20;77.20;;;;;;5057438;28;20025;-75
2021/10/06 02:20:29;;;;;;;4.13;0.70;;;13.10;77.10;;;;;;5058070;28;20046;-74
2021/10/06 02:22:55;;;;;;;6.32;0.95;;;13.20;77.60;;;;;;5071695;28;20029;-75
2021/10/06 02:25:21;;;;;;;4.30;0.80;;;13.10;77.50;;;;;;5071467;28;20032;-75
2021/10/06 02:27:47;;;;;;;6.35;0.95;;;13.00;77.60;;;;;;5071441;28;20562;-74
2021/10/06 02:30:14;;;;;;;5.90;0.80;;;13.10;78.00;;;;;;5071229;28;20024;-74
2021/10/06 02:32:40;;;;;;;3.10;0.85;;;13.10;78.30;;;;;;5069841;28;20503;-74
2021/10/06 02:35:07;;;;;;;6.07;1.50;;;13.10;77.80;;;;;;5071433;28;20025;-75
2021/10/06 02:37:33;;;;;;;5.25;0.77;;;13.10;77.70;;;;;;5071109;28;20024;-73
2021/10/06 02:39:59;;;;;;;5.43;0.90;;;13.10;77.80;;;;;;5071227;28;20584;-74
2021/10/06 02:42:24;;;;;;;5.22;1.35;;;13.20;77.90;;;;;;5071480;28;20033;-74
2021/10/06 02:44:50;;;;;;;4.38;0.90;;;13.20;77.80;;;;;;5071481;28;20099;-76
2021/10/06 02:47:16;;;;;;;5.85;0.85;;;13.10;77.40;;;;;;5071075;28;20028;-75
2021/10/06 02:49:42;;;;;;;4.78;0.90;;;13.10;77.50;;;;;;5071247;28;20055;-76
2021/10/06 02:52:07;;;;;;;6.03;0.77;;;13.10;77.80;;;;;;5058880;28;20032;-73
2021/10/06 02:54:33;;;;;;;5.22;0.82;;;13.10;78.10;;;;;;5053232;28;20021;-76
2021/10/06 02:57:01;;;;;;;6.40;0.93;;;13.00;77.60;;;;;;5071928;28;20370;-76
2021/10/06 02:59:30;;;;;;;5.03;0.70;;;13.00;77.80;;;;;;5070744;28;20477;-76
2021/10/06 03:01:56;;;;;;;4.55;0.70;;;12.90;77.70;;;;;;5071218;28;20165;-76
2021/10/06 03:04:23;;;;;;;6.75;1.33;;;12.90;78.10;;;;;;5071086;28;20532;-76
2021/10/06 03:06:49;;;;;;;5.90;1.10;;;12.90;78.20;;;;;;5052998;28;20043;-76
2021/10/06 03:09:15;;;;;;;5.15;0.77;;;12.90;78.10;;;;;;5071189;28;20158;-76
2021/10/06 03:11:41;;;;;;;6.25;1.17;;;12.90;78.50;;;;;;5058126;28;20029;-73
2021/10/06 03:14:07;;;;;;;4.20;0.70;;;13.00;78.60;;;;;;5070719;28;20029;-76
2021/10/06 03:16:33;;;;;;;3.85;0.88;;;13.00;78.30;;;;;;5070746;28;20031;-76
2021/10/06 03:18:58;;;;;;;3.45;0.82;;;13.00;78.30;;;;;;5071122;28;20020;-76
2021/10/06 03:21:24;;;;;;;4.47;0.70;;;13.00;78.50;;;;;;5060167;28;20025;-76
2021/10/06 03:23:50;;;;;;;5.50;0.95;;;13.00;78.30;;;;;;5057818;28;20466;-76
2021/10/06 03:26:15;;;;;;;6.57;1.10;;;13.00;78.50;;;;;;5070603;28;20564;-76
2021/10/06 03:28:41;;;;;;;4.47;0.60;;;13.00;78.30;;;;;;5055762;28;20037;-76
2021/10/06 03:31:07;;;;;;;3.88;0.68;;;13.00;77.90;;;;;;5070816;28;20115;-76
2021/10/06 03:33:32;;;;;;;3.90;0.70;;;13.00;78.40;;;;;;5052835;28;20021;-76
2021/10/06 03:35:58;;;;;;;5.65;0.82;;;12.90;78.00;;;;;;5071353;28;20041;-75
2021/10/06 03:38:24;;;;;;;6.13;0.95;;;12.90;78.50;;;;;;5070343;28;20453;-76
2021/10/06 03:40:49;;;;;;;4.50;0.70;;;12.90;78.60;;;;;;5070867;28;20029;-76
2021/10/06 03:43:15;;;;;;;8.68;1.15;;;12.90;78.70;;;;;;5070560;28;20028;-75
2021/10/06 03:45:41;;;;;;;4.55;0.85;;;12.90;78.70;;;;;;5070387;28;20520;-77
2021/10/06 03:48:07;;;;;;;4.70;0.77;;;12.90;78.60;;;;;;5055752;28;20081;-75
2021/10/06 03:50:33;;;;;;;4.95;0.80;;;13.00;78.80;;;;;;5071064;28;20154;-75
2021/10/06 03:53:00;;;;;;;7.38;0.95;;;12.90;78.40;;;;;;5057016;28;20020;-76
2021/10/06 03:55:25;;;;;;;5.32;0.75;;;12.90;78.90;;;;;;5070739;28;20051;-76
2021/10/06 03:57:51;;;;;;;6.18;0.90;;;12.90;78.60;;;;;;5052338;28;20496;-76
2021/10/06 04:00:17;;;;;;;3.50;0.60;;;12.90;78.90;;;;;;5054403;28;20036;-76
2021/10/06 04:02:42;;;;;;;7.05;0.90;;;12.90;78.70;;;;;;5069717;28;20025;-76
2021/10/06 04:05:08;;;;;;;4.43;0.70;;;12.90;78.60;;;;;;5070205;28;20473;-76
2021/10/06 04:07:34;;;;;;;5.03;0.60;;;12.80;78.50;;;;;;5070179;28;20115;-76
2021/10/06 04:10:00;;;;;;;4.22;0.85;;;12.70;78.90;;;;;;5052785;28;20112;-75
2021/10/06 04:12:26;;;;;;;3.75;0.82;;;12.70;79.10;;;;;;5072703;28;20085;-76
2021/10/06 04:14:51;;;;;;;6.35;1.00;;;12.80;79.30;;;;;;5074308;28;20024;-76
2021/10/06 04:17:17;;;;;;;3.80;0.70;;;12.70;79.10;;;;;;5059419;28;20044;-76
2021/10/06 04:19:43;;;;;;;3.72;0.60;;;12.70;79.00;;;;;;5073738;28;20036;-75
2021/10/06 04:22:08;;;;;;;4.15;0.70;;;12.80;79.50;;;;;;5073917;28;20025;-76
2021/10/06 04:24:34;;;;;;;4.30;0.60;;;12.70;79.30;;;;;;5074139;28;20025;-76
2021/10/06 04:27:00;;;;;;;3.63;0.60;;;12.70;79.30;;;;;;5073876;28;20036;-76
2021/10/06 04:29:26;;;;;;;3.20;0.80;;;12.70;79.40;;;;;;5074042;28;20024;-76
2021/10/06 04:31:51;;;;;;;7.13;1.08;;;12.60;79.20;;;;;;5073559;28;20032;-75
2021/10/06 04:34:17;;;;;;;4.20;0.85;;;12.60;79.50;;;;;;5073592;28;20029;-76
2021/10/06 04:36:43;;;;;;;4.18;0.88;;;12.70;79.50;;;;;;5073722;28;20025;-75
2021/10/06 04:39:08;;;;;;;8.82;1.08;;;12.70;79.60;;;;;;5073461;28;20078;-76
2021/10/06 04:41:34;;;;;;;3.30;0.70;;;12.70;79.50;;;;;;5073684;28;20025;-76
2021/10/06 04:44:02;;;;;;;6.40;0.80;;;12.70;79.50;;;;;;5073503;28;20401;-76
2021/10/06 04:46:28;;;;;;;4.60;1.10;;;12.60;79.60;;;;;;5073141;28;20046;-76
2021/10/06 04:48:54;;;;;;;2.55;0.80;;;12.60;79.60;;;;;;5073318;28;20020;-77
2021/10/06 04:51:20;;;;;;;4.82;0.93;;;12.60;79.90;;;;;;5056538;28;20412;-76
2021/10/06 04:53:45;;;;;;;4.55;0.80;;;12.60;79.80;;;;;;5074036;28;20546;-76
2021/10/06 04:56:11;;;;;;;5.70;1.00;;;12.60;79.60;;;;;;5075415;28;20102;-76
2021/10/06 04:58:37;;;;;;;4.30;1.00;;;12.60;79.70;;;;;;5065919;28;20044;-75
2021/10/06 05:01:03;;;;;;;6.93;1.00;;;12.50;79.70;;;;;;5056141;28;20031;-74
2021/10/06 05:03:29;;;;;;;5.78;1.10;;;12.50;80.00;;;;;;5057237;28;20044;-76
2021/10/06 05:05:54;;;;;;;4.28;0.70;;;12.50;80.00;;;;;;5073348;28;20489;-76
2021/10/06 05:08:20;;;;;;;7.20;1.10;;;12.40;80.40;;;;;;5059212;28;20029;-75
2021/10/06 05:10:45;;;;;;;8.05;1.23;;;12.40;80.40;;;;;;5072687;28;20032;-76
2021/10/06 05:13:11;;;;;;;3.00;0.70;;;12.40;80.40;;;;;;5072587;28;20086;-75
2021/10/06 05:15:37;;;;;;;6.75;1.45;;;12.50;80.30;;;;;;5073011;28;20020;-75
2021/10/06 05:18:02;;;;;;;4.18;1.08;;;12.50;80.40;;;;;;5073391;28;20032;-75
2021/10/06 05:20:28;;;;;;;6.40;1.20;;;12.40;80.30;;;;;;5073007;28;20064;-76
2021/10/06 05:22:54;;;;;;;5.82;0.70;;;12.50;80.30;;;;;;5072297;28;20054;-76
2021/10/06 05:25:20;;;;;;;5.97;0.75;;;12.50;80.20;;;;;;5072307;28;20020;-76
2021/10/06 05:27:47;;;;;;;5.72;0.98;;;12.50;80.50;;;;;;5054665;28;20037;-76
2021/10/06 05:30:13;;;;;;;4.88;0.77;;;12.50;80.20;;;;;;5072603;28;20020;-76
2021/10/06 05:32:40;;;;;;;2.45;0.57;;;12.40;80.50;;;;;;5059470;28;20032;-75
2021/10/06 05:35:06;;;;;;;4.90;0.85;;;12.50;80.70;;;;;;5072285;28;20481;-76
2021/10/06 05:37:31;;;;;;;4.80;0.80;;;12.50;80.50;;;;;;5072046;28;20043;-75
2021/10/06 05:39:57;;;;;;;7.90;1.02;;;12.50;80.80;;;;;;5071948;28;20032;-75
2021/10/06 05:42:23;;;;;;;5.18;0.70;;;12.40;81.80;;;;;;5072161;28;20033;-76
2021/10/06 05:44:48;;;;;;;3.83;1.10;;;12.40;80.80;;;;;;5072885;28;20028;-75
2021/10/06 05:47:14;;;;;;;5.60;1.50;;;12.40;81.00;;;;;;5072194;28;20051;-76
2021/10/06 05:49:39;;;;;;;5.05;1.00;;;12.50;81.20;;;;;;5058277;28;20099;-75
2021/10/06 05:52:05;;;;;;;4.07;0.90;;;12.50;81.00;;;;;;5072257;28;20036;-75
2021/10/06 05:54:31;;;;;;;7.97;1.05;;;12.40;81.10;;;;;;5071672;28;20024;-76
2021/10/06 05:56:57;;;;;;;7.55;1.38;;;12.40;81.40;;;;;;5072450;28;20024;-76
2021/10/06 05:59:22;;;;;;;3.70;1.40;;;12.50;81.30;;;;;;5078931;28;20115;-76
2021/10/06 06:01:49;;;;;;;3.08;1.00;;;12.50;81.80;;;;;;5076998;28;20102;-79
2021/10/06 06:04:17;;;;;;;9.07;1.00;;;12.50;81.20;;;;;;5055337;28;20024;-79
2021/10/06 06:06:46;;;;;;;4.95;0.70;;;12.50;81.50;;;;;;5052584;28;20123;-78
2021/10/06 06:09:12;;;;;;;7.55;0.98;;;12.50;81.60;;;;;;5055919;28;20048;-78
2021/10/06 06:11:38;;;;;;;6.78;1.27;;;12.40;82.40;;;;;;5058497;28;20028;-72
2021/10/06 06:14:05;;;;;;;3.88;0.85;;;12.40;81.30;;;;;;5071592;28;20035;-72
2021/10/06 06:16:31;;;;;;;3.92;0.93;;;12.50;81.70;;;;;;5071477;28;20043;-74
2021/10/06 06:18:57;;;;;;;4.38;1.10;;;12.50;81.60;;;;;;5052596;28;20099;-73
2021/10/06 06:21:23;;;;;;;3.70;1.17;;;12.50;81.30;;;;;;5071727;28;20120;-73
2021/10/06 06:23:48;;;;;;;5.78;0.90;;;12.50;81.80;;;;;;5071672;28;20091;-74
2021/10/06 06:26:14;;;;;;;4.50;0.80;;;12.60;81.70;;;;;;5071222;28;20044;-74
2021/10/06 06:28:40;;;;;;;4.72;0.98;;;12.70;81.80;;;;;;5071498;28;20028;-73
2021/10/06 06:31:07;;;;;;;6.50;1.27;;;12.70;81.60;;;;;;5071348;28;20032;-73
2021/10/06 06:33:33;;;;;;;5.30;1.15;;;12.80;81.70;;;;;;5070512;28;20050;-74
2021/10/06 06:36:04;;;;;;;4.65;1.05;;;12.90;81.40;;;;;;5072025;28;20047;-77
2021/10/06 06:38:29;;;;;;;6.10;1.27;;;13.00;81.70;;;;;;5070646;28;20137;-83
2021/10/06 06:40:55;;;;;;;5.50;0.88;;;13.10;81.40;;;;;;5057445;28;20063;-75
2021/10/06 06:43:21;;;;;;;2.70;0.75;;;13.20;81.00;;;;;;5071285;28;20028;-76
2021/10/06 06:45:47;;;;;;;3.97;0.90;;;13.30;81.10;;;;;;5052834;28;20517;-77
2021/10/06 06:48:13;;;;;;;6.05;1.02;;;13.40;80.70;;;;;;5055422;28;20099;-75
2021/10/06 06:50:38;;;;;;;4.03;0.95;;;13.50;81.70;;;;;;5070639;28;20112;-76
2021/10/06 06:53:04;;;;;;;5.57;0.95;;;13.60;80.20;;;;;;5054895;28;20036;-76
2021/10/06 06:55:30;;;;;;;6.13;1.15;;;13.70;79.80;;;;;;5069244;28;20087;-76
2021/10/06 06:57:55;;;;;;;5.28;0.90;;;13.80;79.70;;;;;;5071095;28;20089;-76
2021/10/06 07:00:21;;;;;;;2.90;0.80;;;13.90;79.80;;;;;;5053841;28;20040;-76
2021/10/06 07:02:47;;;;;;;6.88;1.00;;;13.90;78.90;;;;;;5071826;28;20457;-76
2021/10/06 07:05:13;;;;;;;7.55;1.42;;;13.90;79.00;;;;;;5070739;28;20036;-76
2021/10/06 07:07:39;;;;;;;6.22;0.85;;;13.80;79.10;;;;;;5070891;28;20020;-76
2021/10/06 07:10:05;;;;;;;7.35;1.48;;;13.80;78.90;;;;;;5051961;28;20101;-75
2021/10/06 07:12:30;;;;;;;4.03;1.02;;;13.70;78.30;;;;;;5069943;28;20051;-75
2021/10/06 07:14:56;;;;;;;6.70;1.00;;;13.60;78.90;;;;;;5070665;28;20024;-76
2021/10/06 07:17:22;;;;;;;5.07;1.00;;;13.80;80.00;;;;;;5069385;28;20051;-76
2021/10/06 07:19:48;;;;;;;5.65;1.10;;;14.10;80.30;;;;;;5069817;28;20516;-75
2021/10/06 07:22:16;;;;;;;5.20;1.10;;;14.40;79.80;;;;;;5069329;28;20028;-75
2021/10/06 07:24:41;;;;;;;6.78;1.08;;;14.60;78.80;;;;;;5069571;28;20021;-76
2021/10/06 07:27:08;;;;;;;4.97;1.00;;;14.90;78.10;;;;;;5069735;28;20029;-75
2021/10/06 07:29:34;;;;;;;4.70;1.13;;;15.10;78.70;;;;;;5068297;28;20104;-75
2021/10/06 07:32:01;;;;;;;4.57;0.88;;;15.30;77.30;;;;;;5052302;28;20119;-75
2021/10/06 07:34:26;;;;;;;4.40;1.10;;;15.50;77.20;;;;;;5070399;28;20568;-75
2021/10/06 07:36:52;;;;;;;7.68;1.15;;;15.70;77.00;;;;;;5069147;28;20111;-75
2021/10/06 07:39:18;;;;;;;4.55;0.90;;;16.00;74.60;;;;;;5064768;28;20053;-76
2021/10/06 07:41:44;;;;;;;5.63;1.30;;;16.20;74.70;;;;;;5047516;28;20075;-75
2021/10/06 07:44:10;;;;;;;5.18;1.13;;;16.40;74.60;;;;;;5037573;28;20065;-76
2021/10/06 07:46:36;;;;;;;5.25;1.13;;;16.70;74.20;;;;;;5034225;28;20044;-76
2021/10/06 07:49:02;;;;;;;4.53;1.05;;;16.80;72.50;;;;;;5039859;28;20064;-75
2021/10/06 07:51:27;;;;;;;3.40;0.88;;;17.00;72.10;;;;;;5038462;28;20040;-76
2021/10/06 07:53:53;;;;;;;4.45;0.85;;;17.30;72.80;;;;;;5042814;28;20032;-76
2021/10/06 07:56:20;;;;;;;6.07;1.20;;;17.40;72.30;;;;;;5053652;28;20044;-76
2021/10/06 07:58:46;;;;;;;6.18;0.90;;;17.50;70.60;;;;;;5058622;28;20508;-76
2021/10/06 08:01:12;;;;;;;4.82;1.08;;;17.60;71.70;;;;;;5054422;28;20561;-76
2021/10/06 08:03:38;;;;;;;4.80;1.00;;;17.80;71.50;;;;;;5046153;28;21604;-76
2021/10/06 08:06:04;;;;;;;4.90;0.90;;;18.00;69.60;;;;;;5027885;28;20044;-76
2021/10/06 08:08:30;;;;;;;6.03;1.15;;;18.20;70.20;;;;;;5031912;28;20104;-76
2021/10/06 08:10:57;;;;;;;3.20;0.70;;;18.40;70.40;;;;;;5043267;28;20037;-76
2021/10/06 08:13:24;;;;;;;4.47;0.88;;;18.80;70.10;;;;;;5044582;28;20059;-76
2021/10/06 08:15:51;;;;;;;4.20;0.82;;;18.90;69.20;;;;;;5020894;28;20131;-76
2021/10/06 08:18:19;;;;;;;4.30;1.08;;;19.00;67.40;;;;;;5051271;28;20017;-76
2021/10/06 08:20:55;;;;;;;4.00;0.80;;;19.20;68.60;;;;;;5022573;28;20106;-76
2021/10/06 08:23:22;;;;;;;7.38;0.80;;;19.30;65.90;;;;;;5067675;28;20060;-76
2021/10/06 08:25:50;;;;;;;5.13;0.90;;;19.60;66.50;;;;;;5074888;28;20033;-75
2021/10/06 08:28:16;;;;;;;6.10;1.08;;;19.80;64.40;;;;;;5054134;28;20481;-75
2021/10/06 08:30:42;;;;;;;3.60;1.00;;;19.80;63.50;;;;;;5073471;28;20422;-75
2021/10/06 08:33:08;;;;;;;5.30;0.80;;;19.40;64.00;;;;;;5073211;28;20024;-75
2021/10/06 08:35:34;;;;;;;14.88;1.65;;;19.00;63.20;;;;;;5073657;28;20020;-75
2021/10/06 08:38:01;;;;;;;3.35;0.82;;;18.70;64.50;;;;;;5073190;28;20040;-75
2021/10/06 08:40:27;;;;;;;4.93;0.82;;;19.00;67.60;;;;;;5073091;28;20027;-75
2021/10/06 08:42:53;;;;;;;6.50;1.10;;;19.40;68.10;;;;;;5086172;28;20017;-75
2021/10/06 08:45:18;;;;;;;5.35;1.13;;;19.80;67.00;;;;;;5073511;28;20110;-75
2021/10/06 08:47:44;;;;;;;4.20;1.10;;;20.10;65.50;;;;;;5073062;28;20040;-75
2021/10/06 08:50:13;;;;;;;5.22;1.02;;;20.30;64.00;;;;;;5066228;28;20563;-75
2021/10/06 08:52:38;;;;;;;3.88;0.90;;;20.50;64.60;;;;;;5072548;28;20025;-75
2021/10/06 08:55:06;;;;;;;4.28;0.88;;;20.90;63.50;;;;;;5078236;28;20035;-75
2021/10/06 08:57:33;;;;;;;5.00;1.00;;;21.00;63.60;;;;;;5073575;28;20020;-74
2021/10/06 08:59:59;;;;;;;4.25;0.90;;;21.20;62.80;;;;;;5073413;28;20046;-75
2021/10/06 09:02:25;;;;;;;4.90;1.00;;;21.40;62.10;;;;;;5053637;28;20016;-76
2021/10/06 09:04:51;;;;;;;6.45;1.27;;;21.60;61.50;;;;;;5072948;28;20115;-76
2021/10/06 09:07:17;;;;;;;5.28;1.00;;;21.90;62.10;;;;;;5072484;28;20103;-75
2021/10/06 09:09:43;;;;;;;3.90;1.02;;;21.70;58.50;;;;;;5072674;28;20686;-75
2021/10/06 09:12:14;;;;;;;3.28;1.10;;;21.70;60.40;;;;;;5072569;28;20103;-75
2021/10/06 09:14:42;;;;;;;5.40;1.30;;;21.80;60.50;;;;;;5072642;28;20086;-75
2021/10/06 09:17:09;;;;;;;4.82;0.90;;;21.90;58.80;;;;;;5071831;28;20028;-75
2021/10/06 09:19:46;;;;;;;3.17;1.25;;;21.80;59.30;;;;;;5067677;28;20036;-75
2021/10/06 09:22:15;;;;;;;5.20;1.55;;;21.70;60.60;;;;;;5069448;28;20033;-75
2021/10/06 09:25:07;;;;;;;3.00;0.77;;;21.70;56.70;;;;;;5071881;28;20032;-74
2021/10/06 09:27:38;;;;;;;2.25;0.90;;;21.70;60.40;;;;;;5053954;28;20045;-75
2021/10/06 09:30:07;;;;;;;2.50;0.70;;;21.80;58.50;;;;;;5072173;28;20503;-76
2021/10/06 09:32:37;;;;;;;4.35;0.90;;;22.10;58.40;;;;;;5052383;28;20029;-76
2021/10/06 09:35:20;;;;;;;4.35;1.08;;;22.30;59.30;;;;;;5072417;28;20051;-76
2021/10/06 09:37:49;;;;;;;3.60;0.95;;;22.70;62.30;;;;;;5071482;28;20099;-75
2021/10/06 09:40:18;;;;;;;3.63;0.88;;;22.90;56.30;;;;;;5069207;28;20055;-75
2021/10/06 09:43:01;;;;;;;4.38;0.80;;;23.00;58.00;;;;;;5079071;28;20112;-76
2021/10/06 09:45:30;;;;;;;3.20;0.90;;;23.20;59.20;;;;;;5071129;28;20028;-76
2021/10/06 09:48:00;;;;;;;3.78;0.90;;;23.40;56.30;;;;;;5071955;28;20040;-76
2021/10/06 09:50:26;;;;;;;4.50;1.10;;;23.50;55.80;;;;;;5077298;28;20103;-72
2021/10/06 09:52:53;;;;;;;3.80;0.80;;;23.10;54.70;;;;;;5074049;28;20040;-71
2021/10/06 09:55:20;;;;;;;3.90;1.08;;;22.60;54.80;;;;;;5056637;28;20488;-73
2021/10/06 09:57:46;;;;;;;5.22;1.20;;;22.40;56.70;;;;;;5071497;28;20036;-70
2021/10/06 10:00:20;;;;;;;3.72;1.08;;;22.30;55.10;;;;;;5070948;28;20024;-71
2021/10/06 10:02:46;;;;;;;4.60;0.88;;;22.30;57.50;;;;;;5069653;28;20021;-73
2021/10/06 10:05:13;;;;;;;6.43;0.90;;;22.20;56.80;;;;;;5071897;28;20044;-73
2021/10/06 10:07:40;;;;;;;4.68;0.90;;;22.10;56.20;;;;;;5070965;28;20028;-73
2021/10/06 10:10:07;;;;;;;4.47;1.10;;;22.00;56.70;;;;;;5074882;28;20016;-74
2021/10/06 10:12:33;;;;;;;4.63;1.00;;;21.90;55.90;;;;;;5070808;28;20111;-62
2021/10/06 10:15:00;;;;;;;3.95;1.05;;;21.90;57.80;;;;;;5071443;28;20067;-62
2021/10/06 10:17:27;;;;;;;3.55;0.93;;;21.90;56.70;;;;;;5070657;28;20473;-62
2021/10/06 10:20:00;;;;;;;3.20;0.73;;;21.90;55.80;;;;;;5065966;28;20051;-61
2021/10/06 10:22:30;;;;;;;5.82;0.98;;;21.90;57.50;;;;;;5071181;28;20055;-63
2021/10/06 10:24:56;;;;;;;4.32;0.80;;;22.00;57.20;;;;;;5071095;28;20052;-63
2021/10/06 10:27:24;;;;;;;3.35;0.60;;;22.10;54.10;;;;;;5071057;28;20068;-65
2021/10/06 10:30:05;;;;;;;2.55;0.60;;;22.10;55.30;;;;;;5071016;28;20063;-65
2021/10/06 10:32:48;;;;;;;3.83;0.93;;;22.10;57.20;;;;;;5059184;28;20048;-65
2021/10/06 10:35:15;;;;;;;4.55;0.90;;;22.20;57.90;;;;;;5069090;28;20042;-66
2021/10/06 10:37:50;;;;;;;4.45;0.80;;;22.20;56.80;;;;;;5070568;28;20031;-63
2021/10/06 10:40:34;;;;;;;3.42;0.90;;;22.20;54.20;;;;;;5071914;28;20119;-63
2021/10/06 10:43:04;;;;;;;3.25;0.77;;;22.20;57.30;;;;;;5070854;28;20020;-63
2021/10/06 10:45:59;;;;;;;2.95;0.60;;;22.30;55.80;;;;;;5054700;28;20032;-63
2021/10/06 10:48:28;;;;;;;1.98;0.60;;;22.30;57.60;;;;;;5068882;28;20063;-62
2021/10/06 10:50:57;;;;;;;2.22;0.50;;;22.40;55.90;;;;;;5071062;28;20107;-64
2021/10/06 10:53:50;;;;;;;2.72;0.80;;;22.40;53.00;;;;;;5070728;28;20165;-63
2021/10/06 10:56:47;;;;;;;4.95;1.10;;;22.50;56.70;;;;;;5075270;28;20036;-63
2021/10/06 10:59:19;;;;;;;3.10;0.80;;;22.50;55.50;;;;;;5055924;28;20032;-63
2021/10/06 11:01:48;;;;;;;5.13;0.80;;;22.60;54.50;;;;;;5076265;28;20388;-63
2021/10/06 11:04:23;;;;;;;3.17;0.80;;;22.50;54.20;;;;;;5073784;28;20027;-63
2021/10/06 11:06:52;;;;;;;2.72;0.82;;;22.50;54.30;;;;;;5076479;28;20036;-63
2021/10/06 11:09:32;;;;;;;2.63;0.80;;;22.50;54.90;;;;;;5072944;28;20082;-63
2021/10/06 11:12:07;;;;;;;4.03;0.85;;;22.50;54.20;;;;;;5066962;28;20032;-63
2021/10/06 11:14:35;;;;;;;2.00;0.47;;;22.60;53.50;;;;;;5052134;28;20078;-66
2021/10/06 11:17:07;;;;;;;2.70;0.50;;;22.80;54.80;;;;;;5070254;28;20024;-62
2021/10/06 11:19:55;;;;;;;1.50;0.50;;;22.90;53.20;;;;;;5069869;28;20070;-62
2021/10/06 11:22:23;;;;;;;3.38;0.52;;;22.90;53.70;;;;;;5081131;28;20052;-63
2021/10/06 11:25:04;;;;;;;3.30;0.68;;;22.90;53.80;;;;;;5074599;28;20038;-63
2021/10/06 11:27:46;;;;;;;4.93;0.88;;;23.00;54.00;;;;;;5058271;28;20028;-63
2021/10/06 11:30:13;;;;;;;3.25;1.00;;;23.10;54.10;;;;;;5071973;28;20017;-63
2021/10/06 11:32:49;;;;;;;4.30;0.70;;;23.20;50.50;;;;;;5074513;28;20025;-63
2021/10/06 11:35:15;;;;;;;3.75;0.70;;;23.40;53.70;;;;;;5064586;28;20033;-63
2021/10/06 11:37:41;;;;;;;4.72;0.93;;;23.60;53.50;;;;;;5068917;28;20447;-64
2021/10/06 11:40:12;;;;;;;3.67;0.70;;;23.60;51.00;;;;;;5073996;28;20496;-63
2021/10/06 11:42:38;;;;;;;5.13;0.70;;;23.80;52.60;;;;;;5075911;28;20403;-73
2021/10/06 11:45:17;;;;;;;2.83;0.57;;;24.20;51.90;;;;;;5075353;28;20096;-73
2021/10/06 11:47:42;;;;;;;3.72;0.60;;;25.20;53.70;;;;;;5074027;28;20044;-73
2021/10/06 11:50:08;;;;;;;2.45;0.60;;;26.20;50.50;;;;;;5074947;28;20099;-73
2021/10/06 11:52:34;;;;;;;1.88;0.50;;;26.10;44.10;;;;;;5068185;28;20571;-73
2021/10/06 11:55:00;;;;;;;1.63;0.50;;;25.20;44.20;;;;;;5042775;28;20021;-73
2021/10/06 11:57:26;;;;;;;1.98;0.70;;;24.70;45.10;;;;;;5072049;28;20036;-73
2021/10/06 11:59:52;;;;;;;3.40;0.63;;;24.50;46.20;;;;;;5058583;28;20057;-73
2021/10/06 12:02:21;;;;;;;4.03;0.80;;;23.90;46.20;;;;;;5071214;28;20050;-73
2021/10/06 12:04:49;;;;;;;2.30;0.55;;;23.50;48.30;;;;;;5072604;28;20025;-73
2021/10/06 12:07:15;;;;;;;1.30;0.47;;;23.00;48.30;;;;;;5073040;28;20074;-72
2021/10/06 12:09:51;;;;;;;2.75;0.50;;;22.60;50.60;;;;;;5074156;28;20086;-73
2021/10/06 12:12:19;;;;;;;3.75;0.68;;;22.30;50.80;;;;;;5073829;28;20094;-73
2021/10/06 12:15:01;;;;;;;2.30;0.50;;;22.00;50.90;;;;;;5074766;28;20032;-72
2021/10/06 12:17:32;;;;;;;2.92;0.50;;;21.90;52.80;;;;;;5074205;28;20504;-73
2021/10/06 12:20:03;;;;;;;1.60;0.52;;;22.20;52.60;;;;;;5073936;28;20028;-73
2021/10/06 12:22:39;;;;;;;1.50;0.40;;;21.90;50.40;;;;;;5073926;28;20086;-73
2021/10/06 12:25:08;;;;;;;12.02;1.10;;;21.70;51.00;;;;;;5073514;28;20021;-73
2021/10/06 12:27:38;;;;;;;11.38;1.23;;;21.50;51.10;;;;;;5054661;28;20033;-72
2021/10/06 12:30:20;;;;;;;4.82;0.98;;;21.50;53.40;;;;;;5074380;28;20016;-72
2021/10/06 12:32:48;;;;;;;1.58;0.43;;;22.40;53.80;;;;;;5071757;28;20111;-73
2021/10/06 12:35:17;;;;;;;2.97;0.40;;;23.30;50.90;;;;;;5073656;28;20044;-72
2021/10/06 12:37:55;;;;;;;0.82;0.30;;;23.00;48.90;;;;;;5073271;28;20504;-73
2021/10/06 12:40:41;;;;;;;2.05;0.55;;;22.40;48.40;;;;;;5073459;28;20020;-72
2021/10/06 12:43:11;;;;;;;0.93;0.22;;;22.00;49.60;;;;;;5057046;28;20028;-73
2021/10/06 12:46:03;;;;;;;2.03;0.40;;;21.70;49.20;;;;;;5073520;28;20119;-72
2021/10/06 12:48:41;;;;;;;3.28;0.45;;;21.40;50.90;;;;;;5073605;28;20036;-73